createdAt,value
2023-01-21T00:01:17.023Z,85.72
2023-01-21T00:03:45.501Z,85.57
2023-01-21T00:06:14.954Z,85.62
2023-01-21T00:08:43.240Z,85.55
2023-01-21T00:11:14.790Z,85.71
2023-01-21T00:13:44.027Z,85.32
2023-01-21T00:16:13.054Z,85.70
2023-01-21T00:18:41.293Z,85.65
2023-01-21T00:21:09.461Z,85.59
2023-01-21T00:23:37.778Z,85.79
2023-01-21T00:26:08.067Z,85.92
2023-01-21T00:28:38.338Z,85.93
2023-01-21T00:31:09.016Z,86.08
2023-01-21T00:33:38.140Z,85.91
2023-01-21T00:36:08.336Z,85.71
2023-01-21T00:38:36.640Z,85.64
2023-01-21T00:41:06.259Z,85.63
2023-01-21T00:43:34.649Z,85.71
2023-01-21T00:46:04.189Z,85.82
2023-01-21T00:48:32.432Z,85.48
2023-01-21T00:51:01.072Z,85.58
2023-01-21T00:53:30.510Z,85.48
2023-01-21T00:56:01.091Z,85.09
2023-01-21T00:58:29.599Z,84.88
2023-01-21T01:01:07.502Z,84.77
2023-01-21T01:03:38.280Z,84.33
2023-01-21T01:06:08.259Z,84.56
2023-01-21T01:08:36.172Z,84.32
2023-01-21T01:11:04.682Z,84.20
2023-01-21T01:13:34.257Z,84.35
2023-01-21T01:16:02.722Z,84.09
2023-01-21T01:18:33.891Z,83.95
2023-01-21T01:21:06.233Z,84.05
2023-01-21T01:23:34.146Z,83.99
2023-01-21T01:26:03.461Z,83.49
2023-01-21T01:28:32.615Z,83.47
2023-01-21T01:31:01.761Z,83.28
2023-01-21T01:33:29.698Z,83.16
2023-01-21T01:36:02.484Z,83.28
2023-01-21T01:38:30.499Z,83.46
2023-01-21T01:40:58.544Z,83.31
2023-01-21T01:43:48.287Z,83.22
2023-01-21T01:46:16.696Z,82.85
2023-01-21T01:48:48.402Z,82.64
2023-01-21T01:51:21.121Z,82.68
2023-01-21T01:53:49.548Z,82.71
2023-01-21T01:56:17.781Z,82.51
2023-01-21T01:58:48.040Z,82.56
2023-01-21T02:01:16.322Z,82.11
2023-01-21T02:03:50.869Z,82.27
2023-01-21T02:06:20.261Z,81.87
2023-01-21T02:08:48.832Z,81.65
2023-01-21T02:11:18.212Z,81.37
2023-01-21T02:13:49.200Z,81.19
2023-01-21T02:16:31.058Z,81.54
2023-01-21T02:19:21.102Z,81.22
2023-01-21T02:22:14.408Z,80.91
2023-01-21T02:25:17.872Z,80.80
2023-01-21T02:27:56.017Z,80.77
2023-01-21T02:30:47.629Z,81.01
2023-01-21T02:33:41.850Z,80.37
2023-01-21T02:36:22.035Z,80.31
2023-01-21T02:38:58.724Z,80.11
2023-01-21T02:41:34.263Z,80.45
2023-01-21T02:44:11.934Z,80.02
2023-01-21T02:46:45.825Z,80.32
2023-01-21T02:49:23.949Z,79.97
2023-01-21T02:51:51.967Z,79.89
2023-01-21T02:54:49.764Z,79.64
2023-01-21T02:57:25.561Z,79.66
2023-01-21T02:59:56.501Z,79.63
2023-01-21T03:02:36.943Z,79.74
2023-01-21T03:05:12.489Z,79.12
2023-01-21T03:07:47.574Z,79.20
2023-01-21T03:10:24.659Z,79.21
2023-01-21T03:13:00.494Z,79.01
2023-01-21T03:15:58.403Z,78.98
2023-01-21T03:18:32.421Z,78.94
2023-01-21T03:21:06.782Z,78.98
2023-01-21T03:23:39.705Z,78.85
2023-01-21T03:26:10.428Z,78.84
2023-01-21T03:28:43.799Z,78.45
2023-01-21T03:31:17.749Z,78.17
2023-01-21T03:33:50.073Z,78.57
2023-01-21T03:36:27.844Z,78.37
2023-01-21T03:38:58.890Z,78.31
2023-01-21T03:41:33.977Z,77.86
2023-01-21T03:44:01.968Z,77.98
2023-01-21T03:46:38.305Z,77.91
2023-01-21T03:49:13.007Z,77.83
2023-01-21T03:51:47.854Z,77.67
2023-01-21T03:54:16.132Z,77.75
2023-01-21T03:56:43.980Z,77.47
2023-01-21T03:59:11.976Z,77.12
2023-01-21T04:01:41.736Z,77.00
2023-01-21T04:04:11.064Z,77.11
2023-01-21T04:06:38.999Z,77.17
2023-01-21T04:09:08.548Z,76.91
2023-01-21T04:11:36.410Z,76.90
2023-01-21T04:14:04.352Z,76.52
2023-01-21T04:16:32.255Z,76.56
2023-01-21T04:19:00.109Z,76.28
2023-01-21T04:21:27.914Z,76.31
2023-01-21T04:23:56.128Z,76.19
2023-01-21T04:26:25.422Z,75.77
2023-01-21T04:28:53.519Z,76.20
2023-01-21T04:31:21.507Z,76.27
2023-01-21T04:33:49.406Z,76.29
2023-01-21T04:36:17.313Z,76.30
2023-01-21T04:38:45.252Z,76.00
2023-01-21T04:41:13.437Z,75.79
2023-01-21T04:43:42.807Z,76.09
2023-01-21T04:46:10.950Z,76.02
2023-01-21T04:48:38.811Z,75.91
2023-01-21T04:51:07.873Z,75.90
2023-01-21T04:53:36.025Z,75.56
2023-01-21T04:56:03.934Z,75.31
2023-01-21T04:58:31.987Z,75.28
2023-01-21T05:01:01.505Z,75.68
2023-01-21T05:03:29.508Z,75.33
2023-01-21T05:05:57.316Z,75.64
2023-01-21T05:08:25.313Z,75.06
2023-01-21T05:10:53.205Z,75.46
2023-01-21T05:13:21.116Z,74.81
2023-01-21T05:15:49.038Z,74.94
2023-01-21T05:18:18.436Z,75.06
2023-01-21T05:20:46.337Z,74.95
2023-01-21T05:23:14.188Z,75.02
2023-01-21T05:25:42.174Z,74.77
2023-01-21T05:28:10.137Z,75.21
2023-01-21T05:30:40.432Z,74.82
2023-01-21T05:33:08.871Z,74.94
2023-01-21T05:35:38.078Z,74.50
2023-01-21T05:38:06.130Z,74.87
2023-01-21T05:40:34.084Z,74.45
2023-01-21T05:43:02.009Z,74.73
2023-01-21T05:45:30.037Z,74.16
2023-01-21T05:47:57.868Z,74.38
2023-01-21T05:50:25.807Z,74.69
2023-01-21T05:52:55.066Z,74.03
2023-01-21T05:55:23.120Z,74.18
2023-01-21T05:57:51.381Z,74.08
2023-01-21T06:00:20.234Z,74.16
2023-01-21T06:02:48.191Z,74.32
2023-01-21T06:05:16.230Z,74.25
2023-01-21T06:07:44.098Z,74.15
2023-01-21T06:10:13.436Z,74.10
2023-01-21T06:12:41.282Z,74.02
2023-01-21T06:15:10.058Z,73.85
2023-01-21T06:17:40.131Z,73.90
2023-01-21T06:20:09.794Z,73.62
2023-01-21T06:22:37.755Z,74.09
2023-01-21T06:25:06.311Z,73.42
2023-01-21T06:27:37.194Z,73.59
2023-01-21T06:30:06.353Z,73.33
2023-01-21T06:32:34.703Z,73.45
2023-01-21T06:35:02.622Z,73.56
2023-01-21T06:37:30.957Z,72.93
2023-01-21T06:39:59.024Z,72.86
2023-01-21T06:42:27.212Z,73.12
2023-01-21T06:44:56.576Z,73.13
2023-01-21T06:47:24.474Z,73.04
2023-01-21T06:49:52.881Z,73.17
2023-01-21T06:52:20.706Z,73.02
2023-01-21T06:54:49.194Z,72.98
2023-01-21T06:57:17.227Z,72.32
2023-01-21T06:59:45.163Z,72.81
2023-01-21T07:02:14.653Z,72.56
2023-01-21T07:04:44.959Z,71.82
2023-01-21T07:07:12.895Z,72.04
2023-01-21T07:09:40.820Z,71.67
2023-01-21T07:12:08.955Z,71.49
2023-01-21T07:14:36.956Z,71.34
2023-01-21T07:17:04.893Z,71.42
2023-01-21T07:19:34.155Z,70.65
2023-01-21T07:22:02.111Z,70.59
2023-01-21T07:24:30.139Z,70.65
2023-01-21T07:26:58.147Z,70.74
2023-01-21T07:29:28.001Z,70.45
2023-01-21T07:31:55.926Z,70.26
2023-01-21T07:34:24.073Z,70.16
2023-01-21T07:36:53.431Z,70.04
2023-01-21T07:39:21.379Z,70.34
2023-01-21T07:41:49.728Z,70.32
2023-01-21T07:44:18.986Z,69.61
2023-01-21T07:46:46.796Z,69.27
2023-01-21T07:49:18.286Z,69.23
2023-01-21T07:51:46.814Z,69.26
2023-01-21T07:54:16.338Z,69.03
2023-01-21T07:56:44.261Z,68.65
2023-01-21T07:59:13.345Z,69.38
2023-01-21T08:01:41.462Z,69.15
2023-01-21T08:04:09.854Z,68.78
2023-01-21T08:06:41.193Z,68.56
2023-01-21T08:09:10.220Z,69.12
2023-01-21T08:11:39.451Z,68.15
2023-01-21T08:14:07.348Z,68.52
2023-01-21T08:16:35.274Z,68.31
2023-01-21T08:19:03.195Z,68.57
2023-01-21T08:21:30.976Z,68.08
2023-01-21T08:23:59.008Z,67.84
2023-01-21T08:26:26.876Z,67.79
2023-01-21T08:28:56.201Z,68.31
2023-01-21T08:31:24.310Z,68.04
2023-01-21T08:33:52.244Z,68.22
2023-01-21T08:36:20.126Z,68.02
2023-01-21T08:38:48.883Z,67.68
2023-01-21T08:41:17.814Z,67.87
2023-01-21T08:43:45.724Z,67.51
2023-01-21T08:46:15.657Z,67.97
2023-01-21T08:48:43.539Z,67.30
2023-01-21T08:51:11.579Z,67.23
2023-01-21T08:53:39.474Z,67.61
2023-01-21T08:56:07.794Z,67.77
2023-01-21T08:58:35.817Z,67.87
2023-01-21T09:01:08.628Z,66.72
2023-01-21T09:03:38.526Z,67.38
2023-01-21T09:06:07.467Z,67.20
2023-01-21T09:08:36.508Z,66.81
2023-01-21T09:11:06.808Z,66.84
2023-01-21T09:13:37.517Z,66.97
2023-01-21T09:16:09.916Z,67.81
2023-01-21T09:18:39.320Z,67.46
2023-01-21T09:21:07.981Z,67.58
2023-01-21T09:23:36.899Z,66.84
2023-01-21T09:26:07.987Z,66.86
2023-01-21T09:28:37.853Z,66.89
2023-01-21T09:31:07.368Z,67.38
2023-01-21T09:33:37.560Z,67.60
2023-01-21T09:36:09.071Z,67.45
2023-01-21T09:38:36.912Z,67.06
2023-01-21T09:41:18.827Z,67.25
2023-01-21T09:43:50.459Z,67.36
2023-01-21T09:46:28.976Z,67.22
2023-01-21T09:48:59.201Z,67.24
2023-01-21T09:51:36.773Z,67.47
2023-01-21T09:54:14.679Z,67.33
2023-01-21T09:56:53.222Z,66.61
2023-01-21T09:59:28.545Z,66.67
2023-01-21T10:02:00.302Z,66.19
2023-01-21T10:04:40.411Z,65.84
2023-01-21T10:07:16.314Z,66.31
2023-01-21T10:10:03.274Z,66.10
2023-01-21T10:12:53.597Z,66.05
2023-01-21T10:15:47.769Z,66.20
2023-01-21T10:18:19.565Z,66.25
2023-01-21T10:20:52.021Z,66.33
2023-01-21T10:23:25.964Z,65.95
2023-01-21T10:25:53.861Z,66.07
2023-01-21T10:28:25.209Z,66.13
2023-01-21T10:30:54.478Z,66.08
2023-01-21T10:33:25.357Z,65.86
2023-01-21T10:36:11.818Z,66.44
2023-01-21T10:38:45.731Z,66.30
2023-01-21T10:41:25.108Z,65.82
2023-01-21T10:44:01.753Z,66.21
2023-01-21T10:46:38.120Z,65.78
2023-01-21T10:49:20.801Z,65.84
2023-01-21T10:51:53.624Z,66.13
2023-01-21T10:54:31.088Z,65.29
2023-01-21T10:57:07.787Z,65.28
2023-01-21T10:59:38.235Z,65.40
2023-01-21T11:02:19.562Z,66.07
2023-01-21T11:04:47.798Z,66.30
2023-01-21T11:07:20.797Z,65.97
2023-01-21T11:09:50.289Z,65.87
2023-01-21T11:12:20.374Z,65.67
2023-01-21T11:14:51.908Z,65.50
2023-01-21T11:17:34.709Z,65.35
2023-01-21T11:20:05.498Z,65.99
2023-01-21T11:22:33.855Z,65.75
2023-01-21T11:25:03.564Z,66.46
2023-01-21T11:27:36.296Z,65.64
2023-01-21T11:30:16.631Z,66.25
2023-01-21T11:32:48.900Z,65.51
2023-01-21T11:35:21.989Z,65.15
2023-01-21T11:37:50.002Z,65.63
2023-01-21T11:40:25.107Z,65.29
2023-01-21T11:42:55.290Z,65.78
2023-01-21T11:45:29.795Z,65.77
2023-01-21T11:47:58.921Z,65.62
2023-01-21T11:50:29.444Z,65.02
2023-01-21T11:53:11.404Z,65.49
2023-01-21T11:55:42.307Z,65.76
2023-01-21T11:58:19.856Z,65.50
2023-01-21T12:00:50.741Z,65.70
2023-01-21T12:03:22.116Z,65.13
2023-01-21T12:05:53.008Z,65.46
2023-01-21T12:08:24.287Z,65.48
2023-01-21T12:10:55.980Z,65.30
2023-01-21T12:13:30.659Z,65.92
2023-01-21T12:16:28.706Z,66.14
2023-01-21T12:19:33.633Z,65.91
2023-01-21T12:22:20.385Z,66.07
2023-01-21T12:25:04.894Z,66.15
2023-01-21T12:27:45.023Z,65.68
2023-01-21T12:30:26.079Z,65.69
2023-01-21T12:32:58.538Z,66.10
2023-01-21T12:35:31.333Z,65.64
2023-01-21T12:38:05.631Z,65.87
2023-01-21T12:40:38.369Z,66.30
2023-01-21T12:43:16.887Z,65.64
2023-01-21T12:45:49.908Z,65.71
2023-01-21T12:48:25.637Z,66.36
2023-01-21T12:50:59.109Z,66.73
2023-01-21T12:53:33.958Z,67.06
2023-01-21T12:56:19.114Z,66.32
2023-01-21T12:58:55.792Z,66.61
2023-01-21T13:01:40.739Z,67.01
2023-01-21T13:04:25.243Z,67.24
2023-01-21T13:07:01.865Z,66.94
2023-01-21T13:09:38.334Z,67.59
2023-01-21T13:12:12.620Z,67.04
2023-01-21T13:14:48.282Z,66.67
2023-01-21T13:17:19.996Z,67.25
2023-01-21T13:19:48.003Z,67.97
2023-01-21T13:22:26.287Z,67.63
2023-01-21T13:25:05.820Z,67.62
2023-01-21T13:27:44.326Z,67.46
2023-01-21T13:30:24.811Z,67.51
2023-01-21T13:33:05.574Z,67.12
2023-01-21T13:35:42.354Z,67.62
2023-01-21T13:38:21.141Z,67.42
2023-01-21T13:40:54.672Z,67.89
2023-01-21T13:43:38.362Z,68.47
2023-01-21T13:46:20.712Z,67.92
2023-01-21T13:49:07.398Z,67.95
2023-01-21T13:51:44.329Z,68.47
2023-01-21T13:54:28.055Z,68.17
2023-01-21T13:57:08.631Z,68.21
2023-01-21T13:59:43.069Z,68.41
2023-01-21T14:02:18.634Z,68.72
2023-01-21T14:04:52.757Z,68.74
2023-01-21T14:07:28.081Z,68.32
2023-01-21T14:10:03.274Z,68.11
2023-01-21T14:12:49.395Z,68.67
2023-01-21T14:15:32.307Z,68.37
2023-01-21T14:18:18.166Z,68.95
2023-01-21T14:20:58.373Z,68.96
2023-01-21T14:23:47.231Z,68.82
2023-01-21T14:26:36.032Z,69.44
2023-01-21T14:29:12.413Z,69.17
2023-01-21T14:31:44.227Z,69.32
2023-01-21T14:34:19.368Z,69.58
2023-01-21T14:36:55.976Z,69.36
2023-01-21T14:39:43.028Z,68.92
2023-01-21T14:42:12.673Z,69.35
2023-01-21T14:44:45.393Z,69.48
2023-01-21T14:47:18.934Z,69.36
2023-01-21T14:49:50.435Z,69.89
2023-01-21T14:52:21.239Z,69.38
2023-01-21T14:54:49.956Z,69.70
2023-01-21T14:57:26.487Z,69.62
2023-01-21T15:00:02.351Z,69.51
2023-01-21T15:02:32.104Z,69.49
2023-01-21T15:05:03.585Z,69.92
2023-01-21T15:07:36.286Z,69.75
2023-01-21T15:10:11.581Z,69.67
2023-01-21T15:12:42.962Z,69.35
2023-01-21T15:15:31.053Z,69.86
2023-01-21T15:18:23.330Z,69.63
2023-01-21T15:20:57.976Z,69.89
2023-01-21T15:23:38.408Z,69.64
2023-01-21T15:26:20.176Z,69.94
2023-01-21T15:28:49.235Z,70.00
2023-01-21T15:31:43.474Z,70.26
2023-01-21T15:34:17.296Z,70.18
2023-01-21T15:36:52.767Z,70.78
2023-01-21T15:39:26.321Z,70.15
2023-01-21T15:42:06.453Z,70.32
2023-01-21T15:44:48.528Z,70.03
2023-01-21T15:47:34.760Z,70.39
2023-01-21T15:50:10.496Z,70.46
2023-01-21T15:52:55.771Z,70.09
2023-01-21T15:55:36.381Z,70.05
2023-01-21T15:58:15.956Z,70.59
2023-01-21T16:00:51.644Z,70.59
2023-01-21T16:03:26.219Z,70.74
2023-01-21T16:06:02.311Z,71.04
2023-01-21T16:11:56.335Z,71.27
2023-01-21T16:14:38.747Z,71.78
2023-01-21T16:17:17.437Z,72.44
2023-01-21T16:19:49.186Z,72.79
2023-01-21T16:22:25.788Z,73.35
2023-01-21T16:24:58.247Z,73.37
2023-01-21T16:27:30.954Z,73.79
2023-01-21T16:30:00.617Z,73.49
2023-01-21T16:32:30.995Z,74.04
2023-01-21T16:35:01.706Z,73.75
2023-01-21T16:37:31.078Z,73.80
2023-01-21T16:40:21.761Z,73.81
2023-01-21T16:43:07.154Z,73.71
2023-01-21T16:45:35.081Z,73.50
2023-01-21T16:48:03.007Z,73.74
2023-01-21T16:50:33.138Z,73.41
2023-01-21T16:53:08.601Z,73.50
2023-01-21T16:55:45.680Z,73.42
2023-01-21T16:58:27.708Z,73.07
2023-01-21T17:01:02.238Z,73.67
2023-01-21T17:03:32.172Z,73.18
2023-01-21T17:06:05.563Z,73.40
2023-01-21T17:08:34.481Z,73.13
2023-01-21T17:11:04.991Z,72.88
2023-01-21T17:13:34.773Z,72.80
2023-01-21T17:16:04.485Z,73.05
2023-01-21T17:18:36.441Z,72.95
2023-01-21T17:21:08.245Z,72.45
2023-01-21T17:23:40.499Z,72.46
2023-01-21T17:26:16.556Z,72.58
2023-01-21T17:28:49.182Z,72.32
2023-01-21T17:31:28.157Z,72.24
2023-01-21T17:34:18.728Z,72.20
2023-01-21T17:36:49.053Z,72.26
2023-01-21T17:39:56.686Z,72.18
2023-01-21T17:42:26.777Z,72.22
2023-01-21T17:44:59.016Z,71.80
2023-01-21T17:47:30.209Z,72.11
2023-01-21T17:50:00.248Z,72.28
2023-01-21T17:52:28.702Z,72.49
2023-01-21T17:55:15.447Z,71.92
2023-01-21T17:57:43.699Z,72.25
2023-01-21T18:00:29.343Z,71.81
2023-01-21T18:02:59.588Z,71.86
2023-01-21T18:05:28.491Z,72.71
2023-01-21T18:07:56.549Z,72.18
2023-01-21T18:10:27.907Z,72.16
2023-01-21T18:12:56.938Z,71.68
2023-01-21T18:15:27.097Z,72.09
2023-01-21T18:17:58.107Z,72.32
2023-01-21T18:20:28.111Z,72.25
2023-01-21T18:22:58.268Z,71.83
2023-01-21T18:25:27.856Z,71.76
2023-01-21T18:27:56.741Z,71.58
2023-01-21T18:30:28.357Z,71.82
2023-01-21T18:32:57.786Z,72.08
2023-01-21T18:35:28.929Z,71.95
2023-01-21T18:37:57.193Z,71.38
2023-01-21T18:40:25.425Z,71.80
2023-01-21T18:42:55.941Z,72.04
2023-01-21T18:45:28.189Z,72.03
2023-01-21T18:47:58.894Z,71.83
2023-01-21T18:50:28.646Z,72.15
2023-01-21T18:52:57.309Z,71.52
2023-01-21T18:55:28.969Z,71.81
2023-01-21T18:57:58.030Z,71.97
2023-01-21T19:00:29.928Z,71.60
2023-01-21T19:03:01.071Z,71.46
2023-01-21T19:05:33.927Z,70.96
2023-01-21T19:08:02.713Z,71.21
2023-01-21T19:10:30.534Z,71.67
2023-01-21T19:12:58.482Z,71.62
2023-01-21T19:15:29.651Z,71.69
2023-01-21T19:17:58.457Z,71.34
2023-01-21T19:20:28.848Z,71.74
2023-01-21T19:22:57.712Z,71.36
2023-01-21T19:25:27.207Z,71.57
2023-01-21T19:27:57.581Z,71.67
2023-01-21T19:30:29.106Z,71.28
2023-01-21T19:33:00.617Z,71.23
2023-01-21T19:35:34.323Z,71.47
2023-01-21T19:38:03.126Z,71.04
2023-01-21T19:40:31.966Z,71.18
2023-01-21T19:42:59.848Z,71.74
2023-01-21T19:45:30.209Z,71.01
2023-01-21T19:47:58.125Z,71.67
2023-01-21T19:50:27.657Z,71.87
2023-01-21T19:52:56.157Z,71.96
2023-01-21T19:55:26.459Z,71.96
2023-01-21T19:57:57.428Z,71.44
2023-01-21T20:00:27.394Z,71.62
2023-01-21T20:02:56.881Z,71.32
2023-01-21T20:05:27.635Z,71.80
2023-01-21T20:07:55.952Z,72.11
2023-01-21T20:10:26.534Z,71.31
2023-01-21T20:12:55.050Z,71.50
2023-01-21T20:15:26.790Z,71.46
2023-01-21T20:17:59.033Z,71.44
2023-01-21T20:20:28.648Z,71.71
2023-01-21T20:22:56.953Z,71.91
2023-01-21T20:25:26.331Z,72.05
2023-01-21T20:27:57.857Z,72.11
2023-01-21T20:30:28.683Z,72.25
2023-01-21T20:33:00.940Z,71.90
2023-01-21T20:35:29.188Z,72.73
2023-01-21T20:37:58.942Z,72.20
2023-01-21T20:40:29.744Z,72.07
2023-01-21T20:42:58.605Z,72.67
2023-01-21T20:45:31.524Z,72.47
2023-01-21T20:48:03.356Z,72.63
2023-01-21T20:50:35.420Z,72.17
2023-01-21T20:53:04.615Z,72.17
2023-01-21T20:55:32.766Z,72.31
2023-01-21T20:58:00.734Z,71.92
2023-01-21T21:00:31.649Z,72.22
2023-01-21T21:03:01.148Z,72.14
2023-01-21T21:05:29.655Z,72.21
2023-01-21T21:07:57.671Z,71.79
2023-01-21T21:10:29.328Z,72.07
2023-01-21T21:12:58.809Z,71.82
2023-01-21T21:15:28.256Z,71.53
2023-01-21T21:17:56.951Z,72.21
2023-01-21T21:20:28.845Z,71.97
2023-01-21T21:22:56.995Z,72.35
2023-01-21T21:25:27.403Z,71.82
2023-01-21T21:27:55.982Z,72.43
2023-01-21T21:30:25.996Z,71.95
2023-01-21T21:32:54.039Z,71.95
2023-01-21T21:35:28.353Z,72.59
2023-01-21T21:38:02.021Z,72.56
2023-01-21T21:40:30.574Z,72.27
2023-01-21T21:43:16.569Z,73.07
2023-01-21T21:45:58.840Z,73.15
2023-01-21T21:48:38.799Z,73.13
2023-01-21T21:51:09.415Z,73.36
2023-01-21T21:53:38.000Z,73.27
2023-01-21T21:56:08.281Z,73.46
2023-01-21T21:58:36.237Z,73.46
2023-01-21T22:01:11.724Z,73.04
2023-01-21T22:03:40.097Z,73.72
2023-01-21T22:06:10.160Z,73.28
2023-01-21T22:08:39.516Z,73.32
2023-01-21T22:11:09.064Z,73.62
2023-01-21T22:13:40.272Z,73.95
2023-01-21T22:16:11.668Z,73.33
2023-01-21T22:18:40.233Z,73.79
2023-01-21T22:21:12.118Z,73.74
2023-01-21T22:23:40.179Z,73.59
2023-01-21T22:26:12.335Z,73.68
2023-01-21T22:28:40.799Z,74.08
2023-01-21T22:31:11.185Z,73.82
2023-01-21T22:33:40.385Z,73.69
2023-01-21T22:36:12.032Z,73.66
2023-01-21T22:38:41.019Z,73.94
2023-01-21T22:41:10.837Z,73.83
2023-01-21T22:43:41.752Z,73.71
2023-01-21T22:46:12.001Z,73.89
2023-01-21T22:48:41.466Z,73.55
2023-01-21T22:51:13.214Z,73.59
2023-01-21T22:53:41.520Z,73.90
2023-01-21T22:56:09.473Z,73.86
2023-01-21T22:58:37.621Z,74.15
2023-01-21T23:01:06.259Z,74.05
2023-01-21T23:03:34.241Z,74.17
2023-01-21T23:06:06.284Z,74.09
2023-01-21T23:08:37.322Z,73.77
2023-01-21T23:11:07.556Z,73.78
2023-01-21T23:13:36.350Z,73.87
2023-01-21T23:16:09.815Z,73.75
2023-01-21T23:18:40.396Z,73.49
2023-01-21T23:21:09.603Z,73.91
2023-01-21T23:23:39.077Z,74.20
2023-01-21T23:26:09.797Z,73.86
2023-01-21T23:28:41.441Z,74.37
2023-01-21T23:31:11.545Z,73.96
2023-01-21T23:33:41.350Z,74.13
2023-01-21T23:36:11.282Z,74.40
2023-01-21T23:38:41.397Z,74.17
2023-01-21T23:41:10.798Z,74.43
2023-01-21T23:43:38.954Z,73.92
2023-01-21T23:46:08.111Z,74.04
2023-01-21T23:48:36.027Z,74.42
2023-01-21T23:51:04.738Z,73.96
2023-01-21T23:53:34.305Z,74.47
2023-01-21T23:56:08.537Z,73.78
2023-01-21T23:58:36.478Z,73.75
